Time;durP1;ratioP1;P1;durP2;ratioP2;P2;SDS_P1;SDS_P2;PMS_P1;PMS_P2;Temp;Humidity;BMP_temperature;BMP_pressure;BME280_temperature;BME280_humidity;BME280_pressure;Samples;Min_cycle;Max_cycle;Signal;HPM_P1;HPM_P2
2024/01/12 00:00:28;;;;;;;49.73;28.00;;;1.90;99.90;;;;;;5034345;28;20214;-77
2024/01/12 00:02:55;;;;;;;44.27;26.63;;;2.00;99.90;;;;;;5034018;28;20211;-76
2024/01/12 00:05:23;;;;;;;52.63;27.27;;;1.80;99.90;;;;;;5033942;28;20199;-76
2024/01/12 00:07:50;;;;;;;44.80;27.03;;;2.00;99.90;;;;;;5048979;28;20214;-77
2024/01/12 00:10:17;;;;;;;47.67;27.43;;;2.10;99.90;;;;;;5034641;28;20213;-76
2024/01/12 00:12:45;;;;;;;45.27;26.87;;;2.20;99.90;;;;;;5034835;28;20213;-77
2024/01/12 00:15:13;;;;;;;46.47;27.33;;;2.20;99.90;;;;;;5034467;28;20274;-77
2024/01/12 00:17:42;;;;;;;46.50;27.70;;;2.10;99.90;;;;;;5034099;28;20204;-77
2024/01/12 00:20:10;;;;;;;48.27;28.17;;;2.20;99.90;;;;;;5029825;28;20231;-77
2024/01/12 00:22:38;;;;;;;48.00;28.63;;;2.10;99.90;;;;;;5030115;28;20226;-77
2024/01/12 00:25:06;;;;;;;51.20;29.17;;;2.10;99.90;;;;;;5033497;28;20210;-77
2024/01/12 00:27:33;;;;;;;49.63;28.40;;;2.10;99.90;;;;;;5033048;28;20197;-77
2024/01/12 00:30:01;;;;;;;47.63;28.80;;;2.10;99.90;;;;;;5034386;28;20223;-77
2024/01/12 00:32:28;;;;;;;52.17;29.67;;;2.20;99.90;;;;;;5033268;28;20525;-77
2024/01/12 00:34:57;;;;;;;52.23;29.73;;;2.20;99.90;;;;;;5049662;28;20199;-77
2024/01/12 00:37:24;;;;;;;51.50;28.27;;;2.30;99.90;;;;;;5029612;28;20217;-77
2024/01/12 00:39:51;;;;;;;49.90;29.00;;;2.30;99.90;;;;;;5039768;28;20245;-77
2024/01/12 00:42:19;;;;;;;52.10;28.80;;;2.30;99.90;;;;;;5030154;28;20203;-77
2024/01/12 00:44:46;;;;;;;48.77;28.57;;;2.40;99.90;;;;;;5027246;28;20211;-77
2024/01/12 00:47:13;;;;;;;53.13;28.87;;;2.50;99.90;;;;;;5017784;28;20257;-77
2024/01/12 00:49:41;;;;;;;50.93;28.10;;;2.40;99.90;;;;;;5026639;28;20217;-77
2024/01/12 00:52:10;;;;;;;49.13;29.47;;;2.30;99.90;;;;;;5030724;28;20195;-77
2024/01/12 00:54:37;;;;;;;46.37;28.40;;;1.90;99.90;;;;;;5032115;28;20203;-77
2024/01/12 00:57:05;;;;;;;55.23;29.07;;;2.10;99.90;;;;;;5032891;28;20199;-77
2024/01/12 00:59:32;;;;;;;51.37;28.73;;;2.20;99.90;;;;;;5033933;28;20211;-77
2024/01/12 01:01:59;;;;;;;48.67;28.33;;;2.10;99.90;;;;;;5032504;28;20213;-77
2024/01/12 01:04:27;;;;;;;50.47;28.37;;;2.10;99.90;;;;;;5034047;28;20218;-77
2024/01/12 01:06:54;;;;;;;49.73;27.60;;;2.10;99.90;;;;;;5032516;28;20217;-77
2024/01/12 01:09:23;;;;;;;51.53;29.57;;;2.20;99.90;;;;;;5033121;28;20228;-77
2024/01/12 01:11:52;;;;;;;50.17;28.97;;;2.20;99.90;;;;;;5030828;28;20775;-77
2024/01/12 01:14:22;;;;;;;50.17;28.13;;;2.30;99.90;;;;;;5029101;28;20196;-77
2024/01/12 01:16:49;;;;;;;49.03;28.60;;;2.20;99.90;;;;;;5028199;28;20212;-76
2024/01/12 01:19:17;;;;;;;50.67;29.53;;;2.20;99.90;;;;;;5030728;28;20219;-77
2024/01/12 01:21:44;;;;;;;50.20;28.27;;;2.20;99.90;;;;;;5029047;28;20565;-77
2024/01/12 01:24:11;;;;;;;49.57;28.43;;;2.10;99.90;;;;;;5031327;28;20233;-76
2024/01/12 01:26:40;;;;;;;52.40;28.50;;;2.20;99.90;;;;;;5032027;28;20205;-77
2024/01/12 01:29:08;;;;;;;56.10;28.63;;;2.00;99.90;;;;;;5029887;28;20238;-77
2024/01/12 01:31:35;;;;;;;54.77;30.67;;;1.80;99.90;;;;;;5028373;28;20199;-77
2024/01/12 01:34:03;;;;;;;59.50;30.97;;;2.00;99.90;;;;;;5032099;28;20214;-77
2024/01/12 01:36:30;;;;;;;53.43;29.93;;;2.20;99.90;;;;;;5033784;28;20201;-77
2024/01/12 01:38:57;;;;;;;58.17;31.30;;;2.20;99.90;;;;;;5033969;28;20218;-77
2024/01/12 01:41:25;;;;;;;57.17;29.83;;;2.20;99.90;;;;;;5018947;28;20210;-77
2024/01/12 01:43:53;;;;;;;50.53;29.53;;;2.20;99.90;;;;;;5030465;28;20215;-77
2024/01/12 01:46:22;;;;;;;55.63;28.50;;;2.10;99.90;;;;;;5032309;28;20199;-77
2024/01/12 01:48:50;;;;;;;59.00;30.10;;;2.00;99.90;;;;;;5031790;28;20225;-77
2024/01/12 01:51:17;;;;;;;62.23;30.17;;;2.00;99.90;;;;;;5031870;28;20199;-77
2024/01/12 01:53:45;;;;;;;64.97;32.73;;;2.00;99.90;;;;;;5028454;28;20681;-77
2024/01/12 01:56:13;;;;;;;58.97;30.20;;;2.00;99.90;;;;;;5032903;28;20206;-77
2024/01/12 01:58:42;;;;;;;56.73;29.90;;;2.00;99.90;;;;;;5032207;28;20218;-77
2024/01/12 02:01:12;;;;;;;59.00;29.63;;;1.80;99.90;;;;;;5023909;28;20203;-77
2024/01/12 02:03:41;;;;;;;55.10;29.57;;;1.90;99.90;;;;;;5032122;28;20207;-77
2024/01/12 02:06:08;;;;;;;58.17;28.73;;;1.90;99.90;;;;;;5032036;28;20713;-77
2024/01/12 02:08:36;;;;;;;57.13;30.57;;;2.10;99.90;;;;;;5028198;28;20222;-77
2024/01/12 02:11:03;;;;;;;58.97;29.90;;;2.20;99.90;;;;;;5039064;28;20196;-77
2024/01/12 02:13:31;;;;;;;54.73;29.53;;;2.40;99.90;;;;;;5032137;28;20201;-77
2024/01/12 02:15:59;;;;;;;66.87;32.30;;;2.40;99.90;;;;;;5048804;28;20695;-77
2024/01/12 02:18:28;;;;;;;62.00;31.70;;;2.10;99.90;;;;;;5028129;28;20196;-77
2024/01/12 02:20:57;;;;;;;64.20;31.73;;;2.10;99.90;;;;;;5030030;28;20205;-77
2024/01/12 02:23:25;;;;;;;62.27;30.57;;;1.90;99.90;;;;;;5042758;28;20231;-77
2024/01/12 02:25:52;;;;;;;68.00;31.33;;;1.90;99.90;;;;;;5037546;28;20209;-77
2024/01/12 02:28:20;;;;;;;63.67;31.77;;;2.10;99.90;;;;;;5030555;28;20270;-77
2024/01/12 02:30:48;;;;;;;61.33;30.73;;;2.00;99.90;;;;;;5029977;28;20564;-77
2024/01/12 02:33:15;;;;;;;70.10;32.90;;;2.10;99.90;;;;;;5032763;28;20560;-77
2024/01/12 02:35:42;;;;;;;60.93;29.63;;;2.10;99.90;;;;;;5030955;28;20209;-77
2024/01/12 02:38:11;;;;;;;55.30;28.67;;;2.00;99.90;;;;;;5032260;28;20222;-77
2024/01/12 02:40:39;;;;;;;60.87;28.97;;;2.10;99.90;;;;;;5031003;28;20203;-77
2024/01/12 02:43:07;;;;;;;58.80;29.57;;;2.10;99.90;;;;;;5031225;28;20213;-77
2024/01/12 02:45:33;;;;;;;60.07;29.27;;;2.10;99.90;;;;;;5031426;28;20193;-77
2024/01/12 02:48:01;;;;;;;60.13;28.83;;;2.10;99.90;;;;;;5031070;28;20199;-77
2024/01/12 02:50:28;;;;;;;57.50;29.00;;;2.30;99.90;;;;;;5027831;28;20229;-77
2024/01/12 02:52:55;;;;;;;59.90;29.47;;;2.40;99.90;;;;;;5045016;28;20217;-77
2024/01/12 02:55:24;;;;;;;58.30;29.27;;;2.30;99.90;;;;;;5047679;28;20213;-77
2024/01/12 02:57:51;;;;;;;60.97;29.10;;;2.30;99.90;;;;;;5027722;28;20203;-77
2024/01/12 03:00:19;;;;;;;57.60;28.50;;;2.40;99.90;;;;;;5028432;28;20210;-77
2024/01/12 03:02:47;;;;;;;55.70;28.07;;;2.40;99.90;;;;;;5027676;28;20200;-77
2024/01/12 03:05:14;;;;;;;56.73;27.37;;;2.40;99.90;;;;;;5029700;28;20222;-77
2024/01/12 03:08:18;;;;;;;57.90;28.40;;;2.40;99.90;;;;;;5025904;28;20219;-77
2024/01/12 03:10:46;;;;;;;62.00;29.33;;;2.40;99.90;;;;;;5028843;28;20202;-77
2024/01/12 03:13:14;;;;;;;65.00;28.43;;;2.40;99.90;;;;;;5030983;28;20205;-77
2024/01/12 03:15:41;;;;;;;60.17;29.83;;;2.30;99.90;;;;;;5027552;28;20203;-77
2024/01/12 03:18:09;;;;;;;53.83;27.00;;;2.10;99.90;;;;;;5030307;28;20200;-77
2024/01/12 03:20:36;;;;;;;55.63;28.60;;;2.20;99.90;;;;;;5051882;28;20199;-77
2024/01/12 03:23:04;;;;;;;56.57;26.50;;;2.30;99.90;;;;;;5037304;28;20202;-77
2024/01/12 03:25:31;;;;;;;60.30;28.80;;;2.30;99.90;;;;;;5037364;28;20222;-76
2024/01/12 03:28:00;;;;;;;61.27;29.57;;;2.40;99.90;;;;;;5053087;28;20203;-77
2024/01/12 03:30:28;;;;;;;57.53;28.60;;;2.30;99.90;;;;;;5037612;28;20233;-77
2024/01/12 03:32:55;;;;;;;49.43;26.63;;;2.30;99.90;;;;;;5037973;28;20252;-77
2024/01/12 03:35:23;;;;;;;54.50;27.13;;;2.30;99.90;;;;;;5038056;28;20194;-77
2024/01/12 03:37:50;;;;;;;55.83;26.17;;;2.40;99.90;;;;;;5036765;28;20200;-77
2024/01/12 03:40:18;;;;;;;54.73;26.30;;;2.30;99.90;;;;;;5020830;28;20216;-77
2024/01/12 03:42:46;;;;;;;51.40;26.00;;;2.20;99.90;;;;;;5034180;28;20218;-77
2024/01/12 03:45:15;;;;;;;52.93;25.97;;;2.30;99.90;;;;;;5040967;28;20215;-77
2024/01/12 03:47:42;;;;;;;50.20;25.77;;;2.30;99.90;;;;;;5039971;28;20202;-75
2024/01/12 03:50:10;;;;;;;51.10;25.40;;;2.40;99.90;;;;;;5040196;28;20223;-77
2024/01/12 03:52:37;;;;;;;56.50;26.53;;;2.20;99.90;;;;;;5040639;28;20191;-77
2024/01/12 03:55:05;;;;;;;48.77;25.47;;;2.10;99.90;;;;;;5039535;28;20214;-77
2024/01/12 03:57:32;;;;;;;49.83;26.33;;;2.10;99.90;;;;;;5038686;28;20207;-76
2024/01/12 04:00:00;;;;;;;55.03;26.43;;;2.10;99.90;;;;;;5040892;28;20215;-77
2024/01/12 04:02:29;;;;;;;49.63;25.97;;;2.00;99.90;;;;;;5038887;28;20226;-76
2024/01/12 04:04:56;;;;;;;54.93;27.30;;;2.00;99.90;;;;;;5037864;28;20225;-77
2024/01/12 04:07:23;;;;;;;55.17;26.37;;;2.00;99.90;;;;;;5032627;28;20210;-77
2024/01/12 04:09:51;;;;;;;55.37;27.80;;;2.10;99.90;;;;;;5024873;28;20234;-77
2024/01/12 04:12:18;;;;;;;58.60;27.67;;;2.00;99.90;;;;;;5032708;28;20214;-77
2024/01/12 04:14:46;;;;;;;53.00;26.60;;;2.00;99.90;;;;;;5019428;28;20203;-77
2024/01/12 04:17:13;;;;;;;54.50;27.03;;;2.00;99.90;;;;;;5036357;28;20193;-77
2024/01/12 04:19:42;;;;;;;51.10;25.07;;;2.10;99.90;;;;;;5035910;28;20720;-77
2024/01/12 04:22:10;;;;;;;54.20;27.00;;;2.10;99.90;;;;;;5036167;28;20210;-77
2024/01/12 04:24:37;;;;;;;52.20;26.30;;;2.20;99.90;;;;;;5035913;28;20218;-77
2024/01/12 04:27:05;;;;;;;52.47;26.57;;;2.20;99.90;;;;;;5030617;28;20210;-77
2024/01/12 04:29:34;;;;;;;51.83;25.77;;;2.10;99.90;;;;;;5046078;28;20226;-77
2024/01/12 04:32:01;;;;;;;48.70;24.83;;;2.20;99.90;;;;;;5033896;28;20212;-77
2024/01/12 04:34:28;;;;;;;51.90;28.57;;;2.20;99.90;;;;;;5035980;28;20195;-77
2024/01/12 04:36:57;;;;;;;53.03;27.70;;;2.20;99.90;;;;;;5035090;28;20207;-77
2024/01/12 04:39:25;;;;;;;56.10;26.87;;;2.20;99.90;;;;;;5033468;28;20219;-77
2024/01/12 04:41:52;;;;;;;62.30;28.83;;;2.10;99.90;;;;;;5033364;28;20203;-77
2024/01/12 04:44:19;;;;;;;56.67;26.57;;;2.20;99.90;;;;;;5037618;28;20203;-77
2024/01/12 04:46:49;;;;;;;54.37;26.23;;;2.20;99.90;;;;;;5021096;28;20199;-77
2024/01/12 04:49:16;;;;;;;53.70;26.20;;;2.10;99.90;;;;;;5033724;28;20226;-77
2024/01/12 04:51:44;;;;;;;54.17;26.73;;;2.10;99.90;;;;;;5043156;28;20214;-77
2024/01/12 04:54:13;;;;;;;58.37;27.70;;;2.10;99.90;;;;;;5031730;28;20203;-77
2024/01/12 04:56:39;;;;;;;58.73;28.10;;;2.10;99.90;;;;;;5028921;28;20199;-77
2024/01/12 04:59:07;;;;;;;56.97;26.90;;;2.00;99.90;;;;;;5029254;28;20226;-77
2024/01/12 05:01:34;;;;;;;54.10;29.40;;;1.90;99.90;;;;;;5029905;28;20223;-77
2024/01/12 05:04:02;;;;;;;63.13;26.83;;;1.80;99.90;;;;;;5030754;28;20205;-77
2024/01/12 05:06:38;;;;;;;61.13;27.97;;;1.90;99.90;;;;;;5029804;28;20215;-77
2024/01/12 05:09:06;;;;;;;55.60;27.03;;;2.00;99.90;;;;;;5028976;28;20219;-77
2024/01/12 05:11:35;;;;;;;52.77;25.33;;;2.10;99.90;;;;;;5023756;28;20701;-77
2024/01/12 05:14:03;;;;;;;52.17;25.70;;;2.10;99.90;;;;;;5033372;28;20206;-77
2024/01/12 05:16:30;;;;;;;55.23;26.17;;;2.10;99.90;;;;;;5032449;28;20191;-77
2024/01/12 05:18:58;;;;;;;51.37;24.97;;;2.30;99.90;;;;;;5033135;28;20208;-77
2024/01/12 05:21:27;;;;;;;52.80;26.80;;;2.30;99.90;;;;;;5027878;28;20194;-77
2024/01/12 05:23:54;;;;;;;49.23;24.33;;;2.30;99.90;;;;;;5032201;28;20206;-77
2024/01/12 05:26:22;;;;;;;48.43;24.60;;;2.20;99.90;;;;;;5014288;28;20212;-77
2024/01/12 05:28:50;;;;;;;50.57;25.33;;;2.20;99.90;;;;;;5028733;28;20582;-77
2024/01/12 05:31:18;;;;;;;47.77;25.43;;;2.20;99.90;;;;;;5017744;28;20204;-77
2024/01/12 05:33:45;;;;;;;55.93;26.13;;;2.20;99.90;;;;;;5032676;28;20210;-77
2024/01/12 05:36:13;;;;;;;51.40;25.20;;;2.00;99.90;;;;;;5029602;28;20192;-77
2024/01/12 05:38:40;;;;;;;54.97;25.80;;;2.20;99.90;;;;;;5032349;28;20577;-77
2024/01/12 05:41:07;;;;;;;53.13;25.97;;;2.20;99.90;;;;;;5029318;28;20792;-77
2024/01/12 05:43:35;;;;;;;48.13;26.30;;;2.20;99.90;;;;;;5031873;28;20206;-77
2024/01/12 05:46:05;;;;;;;60.40;29.23;;;2.20;99.90;;;;;;5033644;28;20206;-77
2024/01/12 05:48:32;;;;;;;52.13;26.07;;;2.20;99.90;;;;;;5028342;28;20239;-77
2024/01/12 05:51:00;;;;;;;49.47;24.07;;;2.20;99.90;;;;;;5045336;28;20560;-77
2024/01/12 05:53:27;;;;;;;47.17;22.37;;;2.30;99.90;;;;;;5032608;28;20199;-77
2024/01/12 05:55:54;;;;;;;30.87;15.27;;;2.30;99.90;;;;;;5048304;28;20203;-77
2024/01/12 05:58:22;;;;;;;34.10;15.60;;;2.40;99.90;;;;;;5047943;28;20200;-77
2024/01/12 06:00:49;;;;;;;31.33;14.90;;;2.50;99.90;;;;;;5021009;28;20201;-77
2024/01/12 06:03:18;;;;;;;32.40;15.90;;;2.70;99.90;;;;;;5031250;28;20203;-77
2024/01/12 06:05:48;;;;;;;31.30;16.67;;;2.50;99.90;;;;;;5032307;28;20207;-77
2024/01/12 06:08:15;;;;;;;39.30;19.53;;;2.40;99.90;;;;;;5029879;28;20202;-77
2024/01/12 06:10:43;;;;;;;38.60;19.27;;;2.30;99.90;;;;;;5048337;28;20681;-77
2024/01/12 06:13:11;;;;;;;48.73;23.10;;;2.30;99.90;;;;;;5034761;28;20205;-77
2024/01/12 06:15:39;;;;;;;56.97;24.40;;;2.20;99.90;;;;;;5032319;28;20199;-77
2024/01/12 06:18:06;;;;;;;41.47;21.90;;;2.30;99.90;;;;;;5032483;28;20191;-77
2024/01/12 06:20:35;;;;;;;43.90;21.80;;;2.30;99.90;;;;;;5031813;28;20225;-77
2024/01/12 06:23:03;;;;;;;45.27;22.63;;;2.20;99.90;;;;;;5032971;28;20206;-77
2024/01/12 06:25:36;;;;;;;42.43;21.53;;;2.20;99.90;;;;;;5031160;28;20223;-77
2024/01/12 06:28:05;;;;;;;44.70;22.47;;;2.20;99.90;;;;;;5032768;28;20194;-77
2024/01/12 06:30:32;;;;;;;41.17;21.53;;;2.20;99.90;;;;;;5032634;28;20222;-77
2024/01/12 06:33:00;;;;;;;44.03;22.50;;;2.30;99.90;;;;;;5028295;28;20206;-77
2024/01/12 06:35:27;;;;;;;42.87;20.53;;;2.20;99.90;;;;;;5032430;28;20187;-77
2024/01/12 06:37:57;;;;;;;38.50;20.70;;;2.20;99.90;;;;;;5030856;28;20214;-77
2024/01/12 06:40:24;;;;;;;37.03;19.43;;;2.40;99.90;;;;;;5025912;28;20211;-77
2024/01/12 06:42:52;;;;;;;35.57;18.03;;;2.40;99.90;;;;;;5030840;28;20200;-77
2024/01/12 06:45:20;;;;;;;29.77;15.40;;;2.40;99.90;;;;;;5031644;28;20206;-77
2024/01/12 06:47:47;;;;;;;25.20;13.33;;;2.30;99.90;;;;;;5032378;28;20189;-77
2024/01/12 06:50:15;;;;;;;24.53;13.03;;;2.40;99.90;;;;;;5032413;28;20215;-76
2024/01/12 06:52:42;;;;;;;28.13;13.97;;;2.50;99.90;;;;;;5026249;28;20191;-77
2024/01/12 06:55:11;;;;;;;26.97;13.63;;;2.60;99.90;;;;;;5028325;28;20686;-77
2024/01/12 06:57:38;;;;;;;27.93;14.00;;;2.80;99.90;;;;;;5032439;28;20193;-77
2024/01/12 07:00:07;;;;;;;28.37;15.13;;;2.60;99.90;;;;;;5031285;28;20215;-76
2024/01/12 07:02:35;;;;;;;29.90;16.03;;;2.50;99.90;;;;;;5032609;28;20191;-77
2024/01/12 07:05:02;;;;;;;25.03;14.23;;;2.30;99.90;;;;;;5021007;22;20231;-79
2024/01/12 07:07:43;;;;;;;28.60;14.43;;;2.30;99.90;;;;;;4991603;28;20226;-76
2024/01/12 07:10:12;;;;;;;16.50;10.03;;;2.70;99.90;;;;;;4993415;28;20201;-77
2024/01/12 07:12:39;;;;;;;19.77;11.17;;;4.60;99.90;;;;;;4993038;28;20205;-75
2024/01/12 07:15:08;;;;;;;22.17;11.53;;;4.10;99.90;;;;;;4981039;28;20224;-78
2024/01/12 07:18:19;;;;;;;20.07;12.13;;;3.20;99.90;;;;;;4976991;28;20197;-78
2024/01/12 07:21:06;;;;;;;25.17;12.60;;;2.70;99.90;;;;;;4986828;28;20227;-78
2024/01/12 07:23:45;;;;;;;;;;;;;;;;;;;;;
2024/01/12 08:23:26;;;;;;;30.03;15.27;;;2.70;99.90;;;;;;4988648;28;20195;-84
2024/01/12 08:25:56;;;;;;;27.47;14.50;;;2.80;99.90;;;;;;5000209;28;20235;-84
2024/01/12 08:28:26;;;;;;;25.63;15.07;;;2.70;99.90;;;;;;4979230;28;20197;-84
2024/01/12 08:31:04;;;;;;;;;;;;;;;;;;;;;
2024/01/12 08:33:48;;;;;;;26.33;14.77;;;2.60;99.90;;;;;;4971045;28;20694;-82
2024/01/12 08:36:15;;;;;;;28.73;14.90;;;2.60;99.90;;;;;;4974157;28;20204;-82
2024/01/12 08:38:44;;;;;;;30.53;15.40;;;2.80;99.90;;;;;;4982108;28;20197;-82
2024/01/12 08:41:12;;;;;;;27.60;15.23;;;2.80;99.90;;;;;;4976362;28;20208;-82
2024/01/12 08:43:40;;;;;;;24.80;12.87;;;2.80;99.90;;;;;;4985786;28;20555;-82
2024/01/12 08:46:18;;;;;;;23.83;13.60;;;2.70;99.90;;;;;;4981276;28;20213;-83
2024/01/12 08:48:48;;;;;;;28.00;13.17;;;2.70;99.90;;;;;;4978422;28;20196;-82
2024/01/12 08:51:16;;;;;;;21.53;11.97;;;2.70;99.90;;;;;;4980874;28;20200;-82
2024/01/12 08:53:45;;;;;;;22.40;12.40;;;2.60;99.90;;;;;;4989776;28;20224;-83
2024/01/12 08:56:13;;;;;;;24.77;13.63;;;2.70;99.90;;;;;;4976670;28;20201;-83
2024/01/12 08:58:41;;;;;;;27.07;14.63;;;2.70;99.90;;;;;;4979886;28;20716;-84
2024/01/12 09:01:08;;;;;;;24.27;13.63;;;2.70;99.90;;;;;;4972568;28;20204;-83
2024/01/12 09:03:36;;;;;;;24.97;13.83;;;2.60;99.90;;;;;;4976687;28;20230;-84
2024/01/12 09:06:04;;;;;;;25.40;14.17;;;2.50;99.90;;;;;;4988103;28;20205;-84
2024/01/12 09:08:36;;;;;;;26.97;13.13;;;2.60;99.90;;;;;;4974516;28;20201;-83
2024/01/12 09:11:05;;;;;;;24.43;12.77;;;2.60;99.90;;;;;;4973388;28;20197;-83
2024/01/12 09:13:33;;;;;;;26.13;13.27;;;2.50;99.90;;;;;;4984483;28;20221;-83
2024/01/12 09:16:00;;;;;;;26.40;12.97;;;2.50;99.90;;;;;;4994133;28;20205;-83
2024/01/12 09:18:28;;;;;;;26.13;13.30;;;2.50;99.90;;;;;;4979562;28;20228;-83
2024/01/12 09:20:56;;;;;;;23.73;13.10;;;2.60;99.90;;;;;;4974112;28;20209;-83
2024/01/12 09:23:23;;;;;;;29.97;14.90;;;2.60;99.90;;;;;;4974831;28;20221;-84
2024/01/12 09:25:53;;;;;;;25.83;13.87;;;2.60;99.90;;;;;;4983146;28;20220;-84
2024/01/12 09:28:22;;;;;;;26.63;13.80;;;2.60;99.90;;;;;;4983335;28;20209;-83
2024/01/12 09:30:50;;;;;;;26.63;14.83;;;2.70;99.90;;;;;;4994178;28;20202;-83
2024/01/12 09:33:20;;;;;;;33.63;14.33;;;2.60;99.90;;;;;;4991929;28;20218;-83
2024/01/12 09:35:48;;;;;;;21.20;12.37;;;2.50;99.90;;;;;;4974576;28;20201;-84
2024/01/12 09:38:17;;;;;;;25.17;12.77;;;2.40;99.90;;;;;;4971638;28;20202;-84
2024/01/12 09:40:45;;;;;;;28.63;14.60;;;2.40;99.90;;;;;;4974881;28;20196;-84
2024/01/12 09:43:15;;;;;;;23.50;13.30;;;2.50;99.90;;;;;;4985656;28;20204;-84
2024/01/12 09:45:46;;;;;;;22.77;13.53;;;2.50;99.90;;;;;;4993503;28;20207;-84
2024/01/12 09:48:13;;;;;;;24.50;12.60;;;2.60;99.90;;;;;;4977078;28;20687;-84
2024/01/12 09:50:43;;;;;;;24.67;11.30;;;2.60;99.90;;;;;;4974553;28;20201;-84
2024/01/12 09:53:11;;;;;;;20.50;12.57;;;2.50;99.90;;;;;;4974134;28;20214;-84
2024/01/12 09:55:38;;;;;;;20.80;12.10;;;2.60;99.90;;;;;;4976702;28;20243;-84
2024/01/12 09:58:10;;;;;;;29.43;13.27;;;2.70;99.90;;;;;;4973964;28;20197;-84
2024/01/12 10:00:39;;;;;;;21.90;12.87;;;2.60;99.90;;;;;;4973514;28;20208;-84
2024/01/12 10:03:10;;;;;;;29.53;16.20;;;2.60;99.90;;;;;;4984631;28;20209;-84
2024/01/12 10:05:56;;;;;;;;;;;;;;;;;;;;;
2024/01/12 10:08:34;;;;;;;25.10;14.97;;;2.50;99.90;;;;;;4976804;28;20228;-84
2024/01/12 10:11:02;;;;;;;26.50;14.77;;;2.70;99.90;;;;;;4972158;28;20200;-84
2024/01/12 10:13:30;;;;;;;29.60;15.73;;;2.60;99.90;;;;;;4982532;28;20226;-84
2024/01/12 10:15:57;;;;;;;22.90;14.37;;;2.60;99.90;;;;;;4981958;28;20209;-84
2024/01/12 10:18:26;;;;;;;31.83;14.67;;;2.50;99.90;;;;;;4983653;28;20203;-84
2024/01/12 10:20:54;;;;;;;24.00;14.10;;;2.60;99.90;;;;;;4984337;28;20198;-84
2024/01/12 10:23:21;;;;;;;28.50;15.53;;;2.60;99.90;;;;;;4973739;28;20200;-84
2024/01/12 10:25:57;;;;;;;29.07;14.40;;;2.60;99.90;;;;;;4977360;28;20208;-84
2024/01/12 10:28:27;;;;;;;28.77;14.83;;;2.70;99.90;;;;;;4980013;28;20221;-84
2024/01/12 10:30:55;;;;;;;26.77;14.73;;;2.80;99.90;;;;;;4975643;28;20201;-84
2024/01/12 10:33:23;;;;;;;27.90;14.63;;;2.80;99.90;;;;;;4981072;28;20229;-84
2024/01/12 10:36:00;;;;;;;28.60;15.43;;;2.60;99.90;;;;;;4972697;28;20213;-83
2024/01/12 10:38:31;;;;;;;28.20;15.60;;;2.70;99.90;;;;;;4973317;28;20204;-84
2024/01/12 10:41:05;;;;;;;28.70;15.03;;;2.50;99.90;;;;;;4977691;28;20562;-84
2024/01/12 10:43:39;;;;;;;30.30;16.90;;;2.30;99.90;;;;;;4976632;28;20231;-84
2024/01/12 10:46:11;;;;;;;29.40;16.10;;;2.20;99.90;;;;;;4980379;28;20218;-83
2024/01/12 10:48:46;;;;;;;34.10;16.00;;;2.20;99.90;;;;;;4972384;28;20230;-84
2024/01/12 10:51:19;;;;;;;32.17;16.23;;;2.20;99.90;;;;;;4971610;28;20215;-83
2024/01/12 10:53:53;;;;;;;36.27;16.77;;;2.30;99.90;;;;;;4983042;28;20227;-83
2024/01/12 10:56:22;;;;;;;35.33;17.13;;;2.30;99.90;;;;;;5000565;28;20679;-84
2024/01/12 10:58:50;;;;;;;34.37;16.37;;;2.20;99.90;;;;;;4980098;28;20215;-84
2024/01/12 11:01:17;;;;;;;30.80;17.23;;;2.30;99.90;;;;;;4976793;28;20212;-84
2024/01/12 11:03:51;;;;;;;34.77;18.03;;;2.30;99.90;;;;;;4989763;28;20677;-84
2024/01/12 11:06:22;;;;;;;37.27;18.37;;;2.30;99.90;;;;;;4983916;28;20195;-84
2024/01/12 11:08:54;;;;;;;31.87;17.27;;;2.30;99.90;;;;;;4992221;28;20215;-84
2024/01/12 11:11:26;;;;;;;39.47;17.30;;;2.10;99.90;;;;;;4988435;28;20207;-84
2024/01/12 11:13:54;;;;;;;34.00;18.73;;;2.20;99.90;;;;;;4980604;28;20699;-82
2024/01/12 11:16:22;;;;;;;36.10;17.90;;;2.20;99.90;;;;;;4982100;28;20198;-82
2024/01/12 11:18:50;;;;;;;36.13;17.57;;;2.20;99.90;;;;;;4993756;28;20199;-82
2024/01/12 11:21:25;;;;;;;42.07;21.00;;;2.20;99.90;;;;;;4987428;28;20204;-82
2024/01/12 11:23:53;;;;;;;49.43;24.07;;;2.30;99.90;;;;;;4990424;28;20223;-82
2024/01/12 11:26:30;;;;;;;52.50;24.33;;;2.30;99.90;;;;;;4985456;28;20209;-82
2024/01/12 11:29:00;;;;;;;48.17;24.10;;;2.20;99.90;;;;;;4989087;28;20590;-82
2024/01/12 11:49:47;;;;;;;;;;;;;;;;;;;;;
2024/01/12 11:52:36;;;;;;;57.40;28.10;;;2.30;99.90;;;;;;5010562;28;20198;-81
2024/01/12 11:55:05;;;;;;;56.40;28.90;;;2.30;99.90;;;;;;4995547;28;20238;-81
2024/01/12 11:57:32;;;;;;;52.77;28.50;;;2.30;99.90;;;;;;4995782;28;20207;-83
2024/01/12 12:00:05;;;;;;;65.57;28.87;;;2.40;99.90;;;;;;4978931;28;20198;-83
2024/01/12 12:02:36;;;;;;;53.67;27.87;;;2.30;99.90;;;;;;5000606;28;20209;-83
2024/01/12 12:05:07;;;;;;;54.30;27.40;;;2.30;99.90;;;;;;5002468;28;20241;-83
2024/01/12 12:07:36;;;;;;;60.33;29.57;;;2.30;99.90;;;;;;4977890;28;20559;-76
2024/01/12 12:10:45;;;;;;;59.73;31.17;;;2.40;99.90;;;;;;4975345;28;20577;-77
2024/01/12 12:13:12;;;;;;;53.47;24.07;;;2.40;99.90;;;;;;4990374;28;20198;-81
2024/01/12 12:15:40;;;;;;;56.73;26.33;;;3.10;99.90;;;;;;4979296;28;20535;-83
2024/01/12 12:18:07;;;;;;;55.53;26.87;;;2.40;99.90;;;;;;4995781;28;20213;-82
2024/01/12 12:20:36;;;;;;;60.97;28.50;;;2.50;99.90;;;;;;5001822;28;20197;-83
2024/01/12 12:23:07;;;;;;;55.57;26.03;;;2.50;99.90;;;;;;4982051;28;20207;-82
2024/01/12 12:25:50;;;;;;;54.70;27.13;;;2.50;99.90;;;;;;4987009;28;20193;-82
2024/01/12 12:28:18;;;;;;;52.00;27.00;;;2.40;99.90;;;;;;5001703;28;20204;-83
2024/01/12 12:30:53;;;;;;;51.70;25.30;;;2.40;99.90;;;;;;4981296;28;20202;-83
2024/01/12 12:33:24;;;;;;;50.57;24.87;;;2.30;99.90;;;;;;4982589;28;20206;-82
2024/01/12 12:36:05;;;;;;;45.67;23.03;;;2.20;99.90;;;;;;5007490;28;20196;-83
2024/01/12 12:38:34;;;;;;;45.70;22.30;;;2.40;99.90;;;;;;4995064;28;20194;-82
2024/01/12 12:41:02;;;;;;;50.83;23.50;;;2.30;99.90;;;;;;4989854;28;20208;-83
2024/01/12 12:43:29;;;;;;;48.10;22.90;;;2.30;99.90;;;;;;4998621;28;20257;-83
2024/01/12 12:50:12;;;;;;;54.47;25.33;;;2.50;99.90;;;;;;5005450;28;20220;-84
2024/01/12 12:52:45;;;;;;;51.07;25.13;;;2.40;99.90;;;;;;4979438;28;20217;-83
2024/01/12 12:55:13;;;;;;;51.67;23.97;;;2.40;99.90;;;;;;4994502;28;20220;-84
2024/01/12 12:57:41;;;;;;;50.37;24.83;;;2.50;99.90;;;;;;4979638;28;20202;-83
2024/01/12 13:00:11;;;;;;;59.97;24.67;;;2.40;99.90;;;;;;4975446;28;20210;-83
2024/01/12 13:02:40;;;;;;;57.73;23.97;;;2.50;99.90;;;;;;4992446;28;20210;-82
2024/01/12 13:05:11;;;;;;;60.83;25.97;;;2.50;99.90;;;;;;4979234;28;20220;-79
2024/01/12 13:07:38;;;;;;;66.40;27.60;;;2.40;99.90;;;;;;5001623;28;20205;-82
2024/01/12 13:10:08;;;;;;;61.37;28.33;;;2.50;99.90;;;;;;4979498;28;20265;-83
2024/01/12 13:12:36;;;;;;;70.67;28.80;;;2.50;99.90;;;;;;4981517;28;20198;-82
2024/01/12 13:15:04;;;;;;;74.93;30.67;;;2.60;99.90;;;;;;4986853;28;20215;-82
2024/01/12 13:17:32;;;;;;;69.23;29.83;;;2.50;99.90;;;;;;4978193;28;20213;-82
2024/01/12 13:20:00;;;;;;;70.67;29.87;;;2.60;99.90;;;;;;4998326;28;20201;-82
2024/01/12 13:22:29;;;;;;;74.10;33.00;;;2.70;99.90;;;;;;4980948;28;20209;-82
2024/01/12 13:28:24;;;;;;;72.77;31.50;;;2.80;99.90;;;;;;5003803;28;20217;-82
2024/01/12 13:30:52;;;;;;;76.63;31.43;;;2.80;99.90;;;;;;5007346;28;20202;-82
2024/01/12 13:33:19;;;;;;;76.33;33.57;;;3.00;99.90;;;;;;5002956;28;20195;-82
2024/01/12 13:35:47;;;;;;;81.87;33.70;;;2.90;99.90;;;;;;4980758;28;20195;-82
2024/01/12 13:38:14;;;;;;;86.80;34.40;;;2.80;99.90;;;;;;4997015;28;20198;-82
2024/01/12 13:40:43;;;;;;;70.47;32.33;;;2.70;99.90;;;;;;4980876;28;20198;-82
2024/01/12 13:43:11;;;;;;;76.27;33.97;;;2.70;99.90;;;;;;4995537;28;20196;-82
2024/01/12 13:45:38;;;;;;;77.53;31.90;;;2.70;99.90;;;;;;4981277;28;20206;-82
2024/01/12 13:48:07;;;;;;;71.03;31.87;;;2.80;99.90;;;;;;4995684;28;20207;-82
2024/01/12 13:50:36;;;;;;;73.67;31.23;;;2.70;99.90;;;;;;4995664;28;20635;-82
2024/01/12 13:53:04;;;;;;;75.97;32.97;;;2.70;99.90;;;;;;4980174;28;20561;-82
2024/01/12 13:55:31;;;;;;;85.57;36.10;;;2.70;99.90;;;;;;4984474;28;20196;-82
2024/01/12 13:58:00;;;;;;;70.43;33.00;;;2.70;99.90;;;;;;5006014;28;20201;-82
2024/01/12 14:00:27;;;;;;;80.80;35.20;;;2.80;99.90;;;;;;4997887;28;20194;-82
2024/01/12 14:02:55;;;;;;;78.97;34.43;;;2.80;99.90;;;;;;5003554;28;20209;-82
2024/01/12 14:05:22;;;;;;;70.33;32.23;;;2.70;99.90;;;;;;4979973;28;20226;-82
2024/01/12 14:07:51;;;;;;;77.43;33.20;;;2.80;99.90;;;;;;4987337;28;20208;-82
2024/01/12 14:10:19;;;;;;;79.93;35.07;;;2.70;99.90;;;;;;4979594;28;20225;-82
2024/01/12 14:12:47;;;;;;;72.70;32.20;;;2.70;99.90;;;;;;4998304;28;20202;-82